createdAt,value
2023-05-08T00:01:57.931Z,97869.41
2023-05-08T00:04:26.209Z,97861.63
2023-05-08T00:06:54.392Z,97865.91
2023-05-08T00:09:22.428Z,97858.22
2023-05-08T00:11:50.531Z,97871.63
2023-05-08T00:14:20.037Z,97861.41
2023-05-08T00:16:48.183Z,97868.47
2023-05-08T00:19:16.278Z,97872.16
2023-05-08T00:21:44.344Z,97877.31
2023-05-08T00:24:12.528Z,97874.59
2023-05-08T00:26:42.074Z,97881.44
2023-05-08T00:29:10.251Z,97877.06
2023-05-08T00:31:40.232Z,97878.13
2023-05-08T00:34:08.305Z,97881.09
2023-05-08T00:36:36.366Z,97873.91
2023-05-08T00:39:04.717Z,97877.91
2023-05-08T00:41:32.815Z,97888.13
2023-05-08T00:44:00.946Z,97891.63
2023-05-08T00:46:29.133Z,97891.81
2023-05-08T00:48:58.771Z,97896.59
2023-05-08T00:51:27.859Z,97901.16
2023-05-08T00:53:56.485Z,97905.94
2023-05-08T00:56:26.158Z,97905.19
2023-05-08T00:58:54.915Z,97907.41
2023-05-08T01:01:23.786Z,97903.03
2023-05-08T01:03:52.178Z,97904.28
2023-05-08T01:06:21.863Z,97906.75
2023-05-08T01:08:50.671Z,97906.94
2023-05-08T01:11:32.527Z,97919.28
2023-05-08T01:14:10.918Z,97919.28
2023-05-08T01:16:45.318Z,97916.19
2023-05-08T01:19:38.367Z,97915.72
2023-05-08T01:22:16.528Z,97921.22
2023-05-08T01:25:09.943Z,97919.63
2023-05-08T01:28:01.962Z,97921.63
2023-05-08T01:31:09.047Z,97922.19
2023-05-08T01:33:44.197Z,97935.69
2023-05-08T01:36:19.874Z,97927.72
2023-05-08T01:38:57.348Z,97925.44
2023-05-08T01:41:29.314Z,97940.06
2023-05-08T01:44:07.503Z,97934.56
2023-05-08T01:46:35.824Z,97944.03
2023-05-08T01:49:09.283Z,97947.09
2023-05-08T01:51:42.612Z,97939.69
2023-05-08T01:54:14.158Z,97956.75
2023-05-08T01:56:44.866Z,97948.38
2023-05-08T01:59:16.035Z,97957.09
2023-05-08T02:01:48.118Z,97957.66
2023-05-08T02:04:19.259Z,97960.75
2023-05-08T02:06:47.790Z,97962.72
2023-05-08T02:09:16.652Z,97960.06
2023-05-08T02:11:47.547Z,97972.59
2023-05-08T02:14:21.191Z,97972.13
2023-05-08T02:16:51.964Z,97969.91
2023-05-08T02:19:24.689Z,97973.50
2023-05-08T02:21:54.165Z,97969.06
2023-05-08T02:24:23.818Z,97976.16
2023-05-08T02:26:55.367Z,97968.72
2023-05-08T02:29:25.351Z,97974.88
2023-05-08T02:31:56.238Z,97977.63
2023-05-08T02:34:26.665Z,97991.59
2023-05-08T02:36:55.929Z,97990.25
2023-05-08T02:39:30.033Z,97990.44
2023-05-08T02:41:58.766Z,97985.31
2023-05-08T02:44:27.149Z,97986.50
2023-05-08T02:46:59.996Z,97992.66
2023-05-08T02:49:34.549Z,97990.34
2023-05-08T02:52:11.517Z,97994.13
2023-05-08T02:54:48.686Z,97993.59
2023-05-08T02:57:33.169Z,98003.06
2023-05-08T03:00:04.971Z,97985.78
2023-05-08T03:02:39.221Z,98005.88
2023-05-08T03:05:16.332Z,97989.63
2023-05-08T03:07:46.363Z,98004.31
2023-05-08T03:10:16.812Z,98007.16
2023-05-08T03:12:47.717Z,98004.50
2023-05-08T03:15:23.997Z,98001.19
2023-05-08T03:17:56.204Z,98006.38
2023-05-08T03:20:29.710Z,98003.09
2023-05-08T03:22:58.408Z,98009.09
2023-05-08T03:25:27.884Z,98017.09
2023-05-08T03:27:57.548Z,98015.41
2023-05-08T03:30:28.004Z,98015.28
2023-05-08T03:33:05.677Z,98009.88
2023-05-08T03:35:37.253Z,98007.34
2023-05-08T03:38:06.764Z,98010.94
2023-05-08T03:40:38.739Z,98016.19
2023-05-08T03:43:08.604Z,98019.84
2023-05-08T03:45:37.893Z,98016.22
2023-05-08T03:48:07.566Z,98026.00
2023-05-08T03:50:39.520Z,98022.56
2023-05-08T03:53:10.566Z,98025.13
2023-05-08T03:55:39.444Z,98028.00
2023-05-08T03:58:18.930Z,98033.47
2023-05-08T04:01:00.053Z,98029.19
2023-05-08T04:03:42.494Z,98026.25
2023-05-08T04:06:16.114Z,98030.19
2023-05-08T04:08:53.713Z,98048.28
2023-05-08T04:11:31.833Z,98044.69
2023-05-08T04:14:05.073Z,98057.19
2023-05-08T04:16:38.758Z,98043.16
2023-05-08T04:19:12.937Z,98066.81
2023-05-08T04:21:44.540Z,98066.50
2023-05-08T04:24:16.533Z,98062.47
2023-05-08T04:26:47.361Z,98064.88
2023-05-08T04:29:18.975Z,98070.03
2023-05-08T04:31:48.253Z,98077.97
2023-05-08T04:34:17.200Z,98080.16
2023-05-08T04:36:48.624Z,98081.84
2023-05-08T04:39:16.723Z,98088.88
2023-05-08T04:41:44.885Z,98096.69
2023-05-08T04:44:14.327Z,98092.38
2023-05-08T04:46:42.567Z,98088.16
2023-05-08T04:49:10.991Z,98089.16
2023-05-08T04:51:39.097Z,98087.00
2023-05-08T04:54:08.554Z,98103.63
2023-05-08T04:56:36.837Z,98106.84
2023-05-08T04:59:05.165Z,98099.19
2023-05-08T05:01:33.651Z,98106.75
2023-05-08T05:04:02.060Z,98106.44
2023-05-08T05:06:31.341Z,98110.34
2023-05-08T05:08:59.395Z,98098.75
2023-05-08T05:11:29.101Z,98105.50
2023-05-08T05:13:57.212Z,98107.94
2023-05-08T05:16:25.632Z,98119.47
2023-05-08T05:18:53.936Z,98110.41
2023-05-08T05:21:22.102Z,98113.84
2023-05-08T05:23:50.377Z,98119.16
2023-05-08T05:26:18.595Z,98113.44
2023-05-08T05:28:48.653Z,98119.06
2023-05-08T05:31:16.802Z,98123.03
2023-05-08T05:33:44.911Z,98118.06
2023-05-08T05:36:13.140Z,98118.75
2023-05-08T05:38:41.449Z,98121.84
2023-05-08T05:41:09.600Z,98117.75
2023-05-08T05:43:37.701Z,98124.22
2023-05-08T05:46:08.066Z,98120.63
2023-05-08T05:48:36.819Z,98123.66
2023-05-08T05:51:06.319Z,98129.72
2023-05-08T05:53:34.789Z,98125.06
2023-05-08T05:56:03.405Z,98123.97
2023-05-08T05:58:33.264Z,98126.59
2023-05-08T06:01:02.259Z,98125.06
2023-05-08T06:03:32.966Z,98127.16
2023-05-08T06:06:01.418Z,98131.44
2023-05-08T06:08:29.534Z,98125.59
2023-05-08T06:10:57.677Z,98125.06
2023-05-08T06:13:26.026Z,98112.91
2023-05-08T06:15:57.108Z,98137.00
2023-05-08T06:18:26.132Z,98140.63
2023-05-08T06:20:59.173Z,98132.84
2023-05-08T06:23:28.555Z,98133.06
2023-05-08T06:25:58.063Z,98134.25
2023-05-08T06:28:26.585Z,98141.81
2023-05-08T06:30:55.295Z,98138.69
2023-05-08T06:33:26.098Z,98141.41
2023-05-08T06:35:59.973Z,98148.28
2023-05-08T06:38:32.178Z,98138.38
2023-05-08T06:41:03.197Z,98136.66
2023-05-08T06:43:31.831Z,98146.38
2023-05-08T06:46:07.971Z,98145.69
2023-05-08T06:48:36.325Z,98138.69
2023-05-08T06:51:04.931Z,98144.69
2023-05-08T06:53:34.794Z,98139.22
2023-05-08T06:56:02.989Z,98143.94
2023-05-08T06:58:32.316Z,98152.03
2023-05-08T07:01:01.173Z,98159.53
2023-05-08T07:03:29.891Z,98153.88
2023-05-08T07:05:58.284Z,98165.09
2023-05-08T07:08:26.584Z,98157.75
2023-05-08T07:10:56.285Z,98158.13
2023-05-08T07:13:24.771Z,98164.59
2023-05-08T07:15:55.050Z,98161.97
2023-05-08T07:18:23.748Z,98159.47
2023-05-08T07:20:52.285Z,98151.84
2023-05-08T07:23:23.801Z,98168.88
2023-05-08T07:25:51.970Z,98173.50
2023-05-08T07:28:21.478Z,98179.28
2023-05-08T07:30:50.239Z,98169.47
2023-05-08T07:33:18.789Z,98170.53
2023-05-08T07:35:56.356Z,98170.59
2023-05-08T07:38:24.899Z,98177.69
2023-05-08T07:40:57.183Z,98177.81
2023-05-08T07:43:27.285Z,98185.59
2023-05-08T07:45:55.713Z,98172.47
2023-05-08T07:48:24.150Z,98177.38
2023-05-08T07:50:52.439Z,98170.91
2023-05-08T07:53:21.325Z,98183.59
2023-05-08T07:55:50.287Z,98176.47
2023-05-08T07:58:18.548Z,98177.28
2023-05-08T08:00:48.489Z,98190.75
2023-05-08T08:03:18.454Z,98183.22
2023-05-08T08:05:46.876Z,98186.84
2023-05-08T08:08:15.062Z,98191.22
2023-05-08T08:10:43.307Z,98189.50
2023-05-08T08:13:11.554Z,98187.63
2023-05-08T08:15:39.910Z,98180.97
2023-05-08T08:18:09.784Z,98173.78
2023-05-08T08:20:38.909Z,98177.78
2023-05-08T08:23:07.643Z,98178.06
2023-05-08T08:25:35.867Z,98173.34
2023-05-08T08:28:04.009Z,98183.34
2023-05-08T08:30:32.490Z,98177.72
2023-05-08T08:33:02.524Z,98180.53
2023-05-08T08:35:33.745Z,98178.03
2023-05-08T08:38:02.465Z,98193.63
2023-05-08T08:40:32.794Z,98188.50
2023-05-08T08:43:01.232Z,98185.22
2023-05-08T08:45:31.963Z,98186.09
2023-05-08T08:48:06.492Z,98186.09
2023-05-08T08:50:40.358Z,98187.47
2023-05-08T08:53:17.452Z,98194.66
2023-05-08T08:55:52.761Z,98186.88
2023-05-08T08:58:27.907Z,98199.03
2023-05-08T09:00:57.229Z,98204.22
2023-05-08T09:03:32.499Z,98191.06
2023-05-08T09:06:02.951Z,98193.50
2023-05-08T09:08:37.106Z,98198.09
2023-05-08T09:11:06.445Z,98195.00
2023-05-08T09:13:40.032Z,98191.94
2023-05-08T09:16:12.950Z,98189.00
2023-05-08T09:18:42.215Z,98200.16
2023-05-08T09:21:17.001Z,98202.38
2023-05-08T09:23:56.928Z,98197.13
2023-05-08T09:26:29.397Z,98200.38
2023-05-08T09:29:10.609Z,98204.06
2023-05-08T09:31:40.929Z,98202.34
2023-05-08T09:34:12.415Z,98202.03
2023-05-08T09:36:42.261Z,98207.25
2023-05-08T09:39:14.124Z,98210.31
2023-05-08T09:41:59.262Z,98202.16
2023-05-08T09:44:28.993Z,98206.06
2023-05-08T09:47:12.206Z,98209.81
2023-05-08T09:49:45.942Z,98210.47
2023-05-08T09:52:17.494Z,98207.13
2023-05-08T09:54:49.408Z,98203.69
2023-05-08T09:57:22.284Z,98212.31
2023-05-08T10:00:06.133Z,98219.31
2023-05-08T10:02:36.172Z,98214.38
2023-05-08T10:05:05.986Z,98216.69
2023-05-08T10:07:38.611Z,98215.56
2023-05-08T10:10:11.178Z,98218.66
2023-05-08T10:12:40.408Z,98202.03
2023-05-08T10:15:10.103Z,98199.81
2023-05-08T10:17:48.969Z,98211.66
2023-05-08T10:20:22.472Z,98218.22
2023-05-08T10:22:57.486Z,98208.59
2023-05-08T10:25:29.467Z,98214.34
2023-05-08T10:28:09.576Z,98220.88
2023-05-08T10:30:39.983Z,98211.66
2023-05-08T10:33:17.785Z,98213.19
2023-05-08T10:35:48.133Z,98219.75
2023-05-08T10:38:18.587Z,98217.19
2023-05-08T10:40:50.704Z,98214.78
2023-05-08T10:43:19.944Z,98206.81
2023-05-08T10:45:52.996Z,98208.19
2023-05-08T10:48:31.435Z,98212.63
2023-05-08T10:51:08.082Z,98210.75
2023-05-08T10:53:45.408Z,98203.94
2023-05-08T10:56:13.760Z,98201.16
2023-05-08T10:58:42.216Z,98212.66
2023-05-08T11:01:15.404Z,98218.81
2023-05-08T11:03:50.681Z,98215.06
2023-05-08T11:06:39.842Z,98219.09
2023-05-08T11:09:09.662Z,98213.25
2023-05-08T11:11:40.249Z,98217.81
2023-05-08T11:14:14.865Z,98218.75
2023-05-08T11:17:07.129Z,98215.25
2023-05-08T11:19:35.842Z,98214.19
2023-05-08T11:22:21.793Z,98216.34
2023-05-08T11:24:55.772Z,98201.63
2023-05-08T11:28:20.471Z,98213.13
2023-05-08T11:30:48.570Z,98212.81
2023-05-08T11:33:18.323Z,98214.28
2023-05-08T11:35:56.137Z,98223.03
2023-05-08T11:38:32.857Z,98222.41
2023-05-08T11:41:04.899Z,98224.28
2023-05-08T11:43:59.701Z,98224.63
2023-05-08T11:46:39.388Z,98217.59
2023-05-08T11:49:11.615Z,98225.63
2023-05-08T11:51:44.878Z,98217.72
2023-05-08T11:54:18.207Z,98221.13
2023-05-08T11:56:52.020Z,98216.78
2023-05-08T11:59:20.678Z,98220.53
2023-05-08T12:02:06.893Z,98220.53
2023-05-08T12:04:45.558Z,98218.44
2023-05-08T12:07:14.260Z,98222.44
2023-05-08T12:09:42.509Z,98209.81
2023-05-08T12:12:12.088Z,98204.00
2023-05-08T12:14:40.164Z,98215.97
2023-05-08T12:17:08.405Z,98215.66
2023-05-08T12:19:36.697Z,98217.81
2023-05-08T12:22:04.953Z,98224.84
2023-05-08T12:24:33.146Z,98213.25
2023-05-08T12:27:01.882Z,98217.53
2023-05-08T12:29:31.719Z,98217.63
2023-05-08T12:32:00.038Z,98210.41
2023-05-08T12:34:28.982Z,98202.75
2023-05-08T12:37:06.670Z,98210.41
2023-05-08T12:39:37.874Z,98203.00
2023-05-08T12:42:06.336Z,98208.44
2023-05-08T12:44:36.986Z,98193.56
2023-05-08T12:47:07.115Z,98197.88
2023-05-08T12:49:35.533Z,98204.25
2023-05-08T12:52:05.596Z,98184.91
2023-05-08T12:54:35.472Z,98181.41
2023-05-08T12:57:12.905Z,98185.34
2023-05-08T12:59:43.702Z,98179.84
2023-05-08T13:02:18.743Z,98163.72
2023-05-08T13:04:47.653Z,98180.06
2023-05-08T13:07:16.228Z,98164.34
2023-05-08T13:09:58.482Z,98171.66
2023-05-08T13:12:26.861Z,98169.25
2023-05-08T13:14:56.477Z,98178.53
2023-05-08T13:17:25.025Z,98161.19
2023-05-08T13:19:53.590Z,98165.97
2023-05-08T13:22:26.721Z,98172.03
2023-05-08T13:24:57.659Z,98171.59
2023-05-08T13:27:26.054Z,98177.53
2023-05-08T13:29:55.580Z,98165.75
2023-05-08T13:32:25.463Z,98164.53
2023-05-08T13:34:56.427Z,98162.09
2023-05-08T13:37:27.339Z,98158.69
2023-05-08T13:39:55.540Z,98155.38
2023-05-08T13:42:23.730Z,98154.69
2023-05-08T13:44:52.792Z,98162.19
2023-05-08T13:47:21.099Z,98154.44
2023-05-08T13:49:50.922Z,98159.78
2023-05-08T13:52:19.235Z,98155.72
2023-05-08T13:54:47.493Z,98156.47
2023-05-08T13:57:15.709Z,98156.47
2023-05-08T13:59:44.361Z,98160.56
2023-05-08T14:02:12.706Z,98156.25
2023-05-08T14:04:41.281Z,98149.00
2023-05-08T14:07:11.195Z,98158.44
2023-05-08T14:09:41.847Z,98139.69
2023-05-08T14:12:10.124Z,98155.00
2023-05-08T14:14:39.233Z,98154.13
2023-05-08T14:17:08.103Z,98147.75
2023-05-08T14:19:36.625Z,98146.16
2023-05-08T14:22:04.873Z,98134.75
2023-05-08T14:24:34.651Z,98150.00
2023-05-08T14:27:06.424Z,98151.63
2023-05-08T14:29:35.879Z,98139.91
2023-05-08T14:32:04.266Z,98147.69
2023-05-08T14:34:32.501Z,98142.25
2023-05-08T14:37:00.980Z,98144.94
2023-05-08T14:39:29.645Z,98142.16
2023-05-08T14:42:14.224Z,98142.25
2023-05-08T14:44:48.245Z,98147.59
2023-05-08T14:47:16.476Z,98146.53
2023-05-08T14:49:44.707Z,98146.13
2023-05-08T14:52:12.907Z,98135.03
2023-05-08T14:54:42.231Z,98157.22
2023-05-08T14:57:14.372Z,98132.53
2023-05-08T14:59:49.348Z,98133.59
2023-05-08T15:02:23.165Z,98130.97
2023-05-08T15:04:51.749Z,98122.88
2023-05-08T15:07:20.065Z,98119.59
2023-05-08T15:09:48.918Z,98118.56
2023-05-08T15:12:18.726Z,98127.44
2023-05-08T15:14:47.259Z,98125.00
2023-05-08T15:17:15.758Z,98125.34
2023-05-08T15:19:45.889Z,98118.09
2023-05-08T15:22:14.547Z,98126.31
2023-05-08T15:24:42.978Z,98129.84
2023-05-08T15:27:11.906Z,98133.03
2023-05-08T15:29:41.714Z,98128.25
2023-05-08T15:32:10.543Z,98137.56
2023-05-08T15:34:40.757Z,98111.94
2023-05-08T15:37:09.294Z,98125.34
2023-05-08T15:39:37.512Z,98120.69
2023-05-08T15:42:06.847Z,98126.00
2023-05-08T15:44:53.316Z,98122.00
2023-05-08T15:47:24.159Z,98122.94
2023-05-08T15:49:52.435Z,98123.44
2023-05-08T15:52:20.835Z,98125.38
2023-05-08T15:54:49.470Z,98117.09
2023-05-08T15:57:18.248Z,98116.50
2023-05-08T15:59:46.660Z,98113.63
2023-05-08T16:02:14.829Z,98115.13
2023-05-08T16:04:45.107Z,98118.78
2023-05-08T16:07:13.645Z,98109.97
2023-05-08T16:09:42.205Z,98105.94
2023-05-08T16:12:11.130Z,98102.97
2023-05-08T16:14:39.414Z,98111.78
2023-05-08T16:17:08.916Z,98112.13
2023-05-08T16:19:38.963Z,98118.13
2023-05-08T16:22:08.561Z,98119.19
2023-05-08T16:24:36.712Z,98117.25
2023-05-08T16:27:05.293Z,98108.50
2023-05-08T16:29:33.486Z,98118.88
2023-05-08T16:32:01.808Z,98118.22
2023-05-08T16:34:29.910Z,98109.78
2023-05-08T16:36:58.566Z,98106.44
2023-05-08T16:39:28.271Z,98111.88
2023-05-08T16:41:56.656Z,98120.19
2023-05-08T16:44:25.030Z,98109.81
2023-05-08T16:46:53.370Z,98117.69
2023-05-08T16:49:25.260Z,98129.88
2023-05-08T16:51:53.546Z,98125.09
2023-05-08T16:54:21.694Z,98118.66
2023-05-08T16:56:51.557Z,98128.16
2023-05-08T16:59:20.237Z,98127.59
2023-05-08T17:01:48.566Z,98129.72
2023-05-08T17:04:16.863Z,98130.41
2023-05-08T17:06:45.110Z,98132.44
2023-05-08T17:09:13.294Z,98130.13
2023-05-08T17:11:41.698Z,98134.03
2023-05-08T17:14:11.494Z,98136.00
2023-05-08T17:16:40.742Z,98134.69
2023-05-08T17:19:09.638Z,98138.25
2023-05-08T17:21:37.939Z,98131.53
2023-05-08T17:24:06.832Z,98142.69
2023-05-08T17:26:35.158Z,98128.41
2023-05-08T17:29:03.581Z,98135.66
2023-05-08T17:31:34.429Z,98131.63
2023-05-08T17:34:02.708Z,98151.56
2023-05-08T17:36:31.124Z,98145.88
2023-05-08T17:38:59.484Z,98154.94
2023-05-08T17:41:27.739Z,98162.22
2023-05-08T17:43:56.253Z,98160.78
2023-05-08T17:46:24.651Z,98165.53
2023-05-08T17:48:54.704Z,98157.56
2023-05-08T17:51:23.023Z,98166.13
2023-05-08T17:53:53.293Z,98164.72
2023-05-08T17:56:23.349Z,98167.84
2023-05-08T17:58:53.317Z,98164.13
2023-05-08T18:01:21.838Z,98165.81
2023-05-08T18:03:50.216Z,98170.75
2023-05-08T18:06:20.655Z,98166.78
2023-05-08T18:08:49.656Z,98176.75
2023-05-08T18:11:19.328Z,98172.28
2023-05-08T18:13:47.822Z,98189.50
2023-05-08T18:16:22.294Z,98191.19
2023-05-08T18:18:51.053Z,98183.09
2023-05-08T18:21:22.462Z,98181.25
2023-05-08T18:23:50.895Z,98198.47
2023-05-08T18:26:19.655Z,98197.94
2023-05-08T18:28:48.192Z,98203.81
2023-05-08T18:31:16.966Z,98196.44
2023-05-08T18:33:45.888Z,98194.66
2023-05-08T18:36:18.212Z,98201.16
2023-05-08T18:38:48.925Z,98202.59
2023-05-08T18:41:17.492Z,98211.63
2023-05-08T18:43:47.699Z,98215.22
2023-05-08T18:46:18.284Z,98208.03
2023-05-08T18:48:49.055Z,98221.34
2023-05-08T18:51:17.280Z,98222.69
2023-05-08T18:53:51.823Z,98214.00
2023-05-08T18:56:21.319Z,98224.25
2023-05-08T18:58:49.924Z,98219.59
2023-05-08T19:01:20.341Z,98215.00
2023-05-08T19:03:50.094Z,98210.56
2023-05-08T19:06:19.147Z,98224.94
2023-05-08T19:08:48.863Z,98231.28
2023-05-08T19:11:17.108Z,98240.59
2023-05-08T19:13:45.335Z,98225.47
2023-05-08T19:16:13.884Z,98227.91
2023-05-08T19:18:43.181Z,98234.06
2023-05-08T19:21:11.712Z,98242.16
2023-05-08T19:23:40.074Z,98238.97
2023-05-08T19:26:09.808Z,98234.50
2023-05-08T19:28:38.296Z,98248.19
2023-05-08T19:31:07.369Z,98253.50
2023-05-08T19:33:38.034Z,98258.16
2023-05-08T19:36:06.814Z,98243.41
2023-05-08T19:38:37.504Z,98234.00
2023-05-08T19:41:05.820Z,98237.44
2023-05-08T19:43:35.493Z,98252.16
2023-05-08T19:46:03.644Z,98246.34
2023-05-08T19:48:32.039Z,98243.09
2023-05-08T19:51:06.807Z,98237.09
2023-05-08T19:53:34.976Z,98245.75
2023-05-08T19:56:03.251Z,98251.31
2023-05-08T19:58:31.755Z,98249.63
2023-05-08T20:01:01.800Z,98255.13
2023-05-08T20:03:30.214Z,98254.53
2023-05-08T20:05:58.507Z,98252.63
2023-05-08T20:08:29.503Z,98253.47
2023-05-08T20:11:02.408Z,98251.09
2023-05-08T20:13:30.906Z,98255.47
2023-05-08T20:15:59.591Z,98253.75
2023-05-08T20:18:29.204Z,98261.31
2023-05-08T20:20:57.534Z,98248.53
2023-05-08T20:23:25.817Z,98254.63
2023-05-08T20:25:54.243Z,98257.22
2023-05-08T20:28:26.125Z,98261.91
2023-05-08T20:30:54.657Z,98257.03
2023-05-08T20:33:22.938Z,98249.25
2023-05-08T20:35:54.366Z,98261.28
2023-05-08T20:38:22.805Z,98256.06
2023-05-08T20:40:51.157Z,98258.81
2023-05-08T20:43:19.571Z,98256.31
2023-05-08T20:45:49.273Z,98256.31
2023-05-08T20:48:17.529Z,98247.78
2023-05-08T20:50:45.760Z,98248.63
2023-05-08T20:53:15.305Z,98248.94
2023-05-08T20:55:43.462Z,98242.81
2023-05-08T20:58:11.738Z,98242.97
2023-05-08T21:00:40.162Z,98235.16
2023-05-08T21:03:08.321Z,98244.06
2023-05-08T21:05:36.559Z,98246.56
2023-05-08T21:08:06.332Z,98233.03
2023-05-08T21:10:36.081Z,98244.31
2023-05-08T21:13:05.543Z,98232.84
2023-05-08T21:15:35.120Z,98234.91
2023-05-08T21:18:03.277Z,98235.91
2023-05-08T21:20:33.928Z,98233.69
2023-05-08T21:23:02.500Z,98220.59
2023-05-08T21:25:30.898Z,98230.44
2023-05-08T21:28:00.404Z,98235.38
2023-05-08T21:30:28.551Z,98231.09
2023-05-08T21:32:56.967Z,98229.53
2023-05-08T21:35:25.122Z,98220.97
2023-05-08T21:37:54.659Z,98231.91
2023-05-08T21:40:23.123Z,98233.78
2023-05-08T21:42:51.220Z,98227.03
2023-05-08T21:45:20.883Z,98224.06
2023-05-08T21:48:09.123Z,98225.19
2023-05-08T21:50:45.612Z,98228.91
2023-05-08T21:53:13.821Z,98222.28
2023-05-08T21:55:42.056Z,98210.41
2023-05-08T21:58:10.200Z,98218.25
2023-05-08T22:00:39.924Z,98216.78
2023-05-08T22:03:08.232Z,98222.31
2023-05-08T22:05:36.410Z,98222.47
2023-05-08T22:08:04.653Z,98220.06
2023-05-08T22:10:32.932Z,98209.91
2023-05-08T22:13:01.859Z,98216.06
2023-05-08T22:15:30.939Z,98213.75
2023-05-08T22:18:02.666Z,98211.09
2023-05-08T22:20:31.129Z,98216.53
2023-05-08T22:22:59.201Z,98207.88
2023-05-08T22:25:27.436Z,98207.28
2023-05-08T22:27:55.628Z,98215.22
2023-05-08T22:30:23.900Z,98203.81
2023-05-08T22:32:56.306Z,98203.94
2023-05-08T22:35:27.449Z,98210.41
2023-05-08T22:37:57.354Z,98191.78
2023-05-08T22:40:26.391Z,98191.06
2023-05-08T22:42:55.980Z,98206.81
2023-05-08T22:45:24.729Z,98196.84
2023-05-08T22:47:53.007Z,98201.34
2023-05-08T22:50:21.605Z,98204.03
2023-05-08T22:52:51.168Z,98201.47
2023-05-08T22:55:19.343Z,98204.47
2023-05-08T22:57:47.529Z,98203.78
2023-05-08T23:00:16.584Z,98189.03
2023-05-08T23:02:44.973Z,98192.53
2023-05-08T23:05:13.446Z,98195.19
2023-05-08T23:07:41.956Z,98190.75
2023-05-08T23:10:12.274Z,98196.59
2023-05-08T23:12:40.369Z,98200.41
2023-05-08T23:15:09.762Z,98194.13
2023-05-08T23:17:37.956Z,98195.69
2023-05-08T23:20:07.063Z,98196.53
2023-05-08T23:22:35.135Z,98196.47
2023-05-08T23:25:03.800Z,98188.41
2023-05-08T23:27:33.198Z,98182.44
2023-05-08T23:30:01.610Z,98176.47
2023-05-08T23:32:29.768Z,98185.75
2023-05-08T23:34:57.911Z,98178.75
2023-05-08T23:37:26.166Z,98185.75
2023-05-08T23:39:54.321Z,98183.13
2023-05-08T23:42:22.537Z,98172.03
2023-05-08T23:44:52.161Z,98178.75
2023-05-08T23:47:21.133Z,98176.09
2023-05-08T23:49:49.559Z,98169.09
2023-05-08T23:52:18.874Z,98173.59
2023-05-08T23:54:46.935Z,98172.72
2023-05-08T23:57:15.217Z,98172.72
2023-05-08T23:59:43.373Z,98168.66
